| ตารางข้อมูล | 4529T1 | 4529T2 | 4529T3 | 4529T4 | TH20402 | TH452-9A | TH452-9D | TH814 | ค้นข้อมูล1 | ค้นข้อมูล2 | ค่าสูงสุด-ต่ำสุด |  

Select Sensor -->| 20402 | 452-9A | 452-9D | 4529T1 | 4529T2 | 4529T3 | 4529T4 | 814 | หน้าจอย่อ | 4529 |
Data of room  20402

IDRoomDate  Temp  Humidity
 184208  20402  2021-03-03 09:54:04  0.0  0.0 
 184203  20402  2021-03-03 09:34:03  0.0  0.0 
 184198  20402  2021-03-03 09:14:03  28.2  39.2 
 184193  20402  2021-03-03 08:54:02  28.3  40.3 
 184188  20402  2021-03-03 08:34:02  28.7  43.5 
 184183  20402  2021-03-03 08:14:01  29.2  47.0 
 184178  20402  2021-03-03 07:54:01  29.2  46.6 
 184173  20402  2021-03-03 07:34:01  29.2  46.2 
 184168  20402  2021-03-03 07:14:00  29.2  45.8 
 184163  20402  2021-03-03 06:54:00  29.2  45.9 
 184158  20402  2021-03-03 06:34:00  29.2  43.6 
 184153  20402  2021-03-03 06:13:59  29.1  43.3 
 184148  20402  2021-03-03 05:53:59  29.1  42.8 
 184143  20402  2021-03-03 05:33:58  29.1  42.7 
 184138  20402  2021-03-03 05:13:58  29.2  41.8 
 184133  20402  2021-03-03 04:53:58  29.2  41.6 
 184128  20402  2021-03-03 04:33:57  29.1  41.6 
 184123  20402  2021-03-03 04:13:57  0.0  0.0 
 184118  20402  2021-03-03 03:53:57  29.2  40.2 
 184113  20402  2021-03-03 03:33:56  29.2  39.4 
 184108  20402  2021-03-03 03:13:56  29.2  38.3 
 184103  20402  2021-03-03 02:53:55  29.2  37.8 
 184098  20402  2021-03-03 02:33:55  29.2  37.3 
 184093  20402  2021-03-03 02:13:54  29.1  37.2 
 184088  20402  2021-03-03 01:53:54  29.1  37.0 
 184083  20402  2021-03-03 01:33:54  29.1  36.7 
 184078  20402  2021-03-03 01:13:53  29.1  36.4 
 184073  20402  2021-03-03 00:53:53  29.1  36.3 
 184068  20402  2021-03-03 00:33:53  29.2  36.1 
 184063  20402  2021-03-03 00:13:52  29.1  35.9 
 184058  20402  2021-03-02 23:53:52  29.1  35.5 
 184053  20402  2021-03-02 23:33:51  29.1  35.3 
 184048  20402  2021-03-02 23:13:51  29.1  34.8 
 184043  20402  2021-03-02 22:53:50  29.1  34.5 
 184038  20402  2021-03-02 22:33:50  29.0  34.1 
 184033  20402  2021-03-02 22:13:49  29.0  33.8 
 184028  20402  2021-03-02 21:53:49  29.0  33.4 
 184023  20402  2021-03-02 21:33:48  29.0  32.7 
 184018  20402  2021-03-02 21:13:48  28.9  31.6 
 184013  20402  2021-03-02 20:53:47  28.9  30.8 
 184008  20402  2021-03-02 20:33:47  28.8  30.2 
 184003  20402  2021-03-02 20:13:46  28.8  29.7 
 183998  20402  2021-03-02 19:53:46  28.7  29.2 
 183993  20402  2021-03-02 19:33:45  0.0  0.0 
 183988  20402  2021-03-02 19:13:45  28.5  27.7 
 183983  20402  2021-03-02 18:53:45  27.8  27.0 
 183978  20402  2021-03-02 18:33:44  27.6  27.4 
 183973  20402  2021-03-02 18:13:44  27.6  27.3 
 183972  20402  2021-03-02 17:53:43  27.7  27.5 
 183967  20402  2021-03-02 17:33:43  27.7  27.9 
 183962  20402  2021-03-02 17:13:43  27.8  28.4 
 183957  20402  2021-03-02 16:53:42  28.0  29.4 
 183952  20402  2021-03-02 16:33:42  28.5  28.4 
 183947  20402  2021-03-02 16:13:42  28.0  27.6 
 183942  20402  2021-03-02 15:53:41  27.4  27.5 
 183937  20402  2021-03-02 15:33:41  27.4  27.6 
 183932  20402  2021-03-02 15:13:40  27.4  27.8 
 183927  20402  2021-03-02 14:53:40  27.5  27.9 
 183922  20402  2021-03-02 14:33:40  27.5  28.2 
 183917  20402  2021-03-02 14:13:39  27.5  28.1 
 183912  20402  2021-03-02 13:53:38  27.6  28.4 
 183907  20402  2021-03-02 13:33:38  27.6  28.6 
 183902  20402  2021-03-02 13:13:37  27.7  28.9 
 183897  20402  2021-03-02 12:53:37  27.7  29.2 
 183892  20402  2021-03-02 12:33:37  27.6  29.9 
 183887  20402  2021-03-02 12:13:36  27.6  29.5 
 183882  20402  2021-03-02 11:53:36  27.6  29.6 
 183877  20402  2021-03-02 11:33:35  27.6  29.8 
 183872  20402  2021-03-02 11:13:35  27.6  29.9 
 183867  20402  2021-03-02 10:53:34  27.6  30.3 
 183862  20402  2021-03-02 10:33:34  27.7  30.6 
 183857  20402  2021-03-02 10:13:34  27.8  31.3 

Data every 20 minute.


Data of room  20402


Data every 20 minute.

  Show Graph